createdAt,value
2022-11-27T00:02:33.320Z,100238.69
2022-11-27T00:05:25.879Z,100235.03
2022-11-27T00:08:15.173Z,100243.22
2022-11-27T00:11:11.925Z,100241.41
2022-11-27T00:14:02.303Z,100239.56
2022-11-27T00:16:51.847Z,100237.00
2022-11-27T00:19:41.450Z,100245.69
2022-11-27T00:22:30.999Z,100255.28
2022-11-27T00:25:20.677Z,100256.66
2022-11-27T00:28:11.395Z,100246.59
2022-11-27T00:31:01.607Z,100260.31
2022-11-27T00:33:51.107Z,100263.47
2022-11-27T00:36:44.008Z,100269.06
2022-11-27T00:39:36.206Z,100270.56
2022-11-27T00:42:25.617Z,100285.44
2022-11-27T00:45:16.521Z,100282.22
2022-11-27T00:48:06.696Z,100286.22
2022-11-27T00:51:01.880Z,100299.84
2022-11-27T00:53:51.784Z,100297.59
2022-11-27T00:56:41.673Z,100300.97
2022-11-27T00:59:31.183Z,100289.66
2022-11-27T01:02:22.096Z,100326.00
2022-11-27T01:05:11.811Z,100327.31
2022-11-27T01:08:01.079Z,100316.97
2022-11-27T01:10:54.700Z,100315.91
2022-11-27T01:13:45.195Z,100334.16
2022-11-27T01:16:38.617Z,100343.84
2022-11-27T01:19:32.785Z,100344.53
2022-11-27T01:22:22.119Z,100336.22
2022-11-27T01:25:11.767Z,100354.41
2022-11-27T01:28:01.177Z,100342.41
2022-11-27T01:30:51.765Z,100341.78
2022-11-27T01:33:41.438Z,100343.44
2022-11-27T01:36:33.222Z,100356.63
2022-11-27T01:39:24.540Z,100348.41
2022-11-27T01:42:13.902Z,100347.31
2022-11-27T01:45:03.232Z,100361.66
2022-11-27T01:47:56.832Z,100355.53
2022-11-27T01:50:46.141Z,100359.13
2022-11-27T01:53:36.901Z,100356.91
2022-11-27T01:56:29.068Z,100363.38
2022-11-27T01:59:19.557Z,100377.84
2022-11-27T02:02:08.947Z,100374.81
2022-11-27T02:04:58.294Z,100385.13
2022-11-27T02:07:48.983Z,100384.69
2022-11-27T02:10:50.778Z,100389.03
2022-11-27T02:13:47.006Z,100383.22
2022-11-27T02:16:45.297Z,100406.75
2022-11-27T02:20:03.927Z,100401.66
2022-11-27T02:23:26.878Z,100387.19
2022-11-27T02:27:01.136Z,100382.63
2022-11-27T02:29:58.288Z,100378.47
2022-11-27T02:32:57.378Z,100379.47
2022-11-27T02:35:53.533Z,100382.38
2022-11-27T02:38:49.167Z,100380.59
2022-11-27T02:41:45.836Z,100383.84
2022-11-27T02:44:40.573Z,100374.94
2022-11-27T02:47:33.837Z,100377.72
2022-11-27T02:50:25.450Z,100368.53
2022-11-27T02:53:20.480Z,100356.59
2022-11-27T02:56:16.245Z,100375.47
2022-11-27T02:59:12.736Z,100378.06
2022-11-27T03:02:08.159Z,100367.94
2022-11-27T03:05:04.069Z,100377.41
2022-11-27T03:08:01.071Z,100369.84
2022-11-27T03:10:56.460Z,100376.94
2022-11-27T03:13:50.066Z,100379.22
2022-11-27T03:16:45.191Z,100365.84
2022-11-27T03:19:44.138Z,100366.31
2022-11-27T03:22:34.939Z,100360.50
2022-11-27T03:25:25.293Z,100368.59
2022-11-27T03:28:16.138Z,100364.41
2022-11-27T03:31:06.278Z,100370.81
2022-11-27T03:33:56.356Z,100377.91
2022-11-27T03:36:46.862Z,100365.53
2022-11-27T03:39:38.026Z,100366.16
2022-11-27T03:42:35.683Z,100374.69
2022-11-27T03:45:35.540Z,100370.19
2022-11-27T03:48:33.453Z,100372.28
2022-11-27T03:51:31.412Z,100376.94
2022-11-27T03:54:32.800Z,100369.53
2022-11-27T03:57:29.948Z,100391.13
2022-11-27T04:00:19.837Z,100374.38
2022-11-27T04:03:11.652Z,100383.91
2022-11-27T04:06:00.932Z,100392.94
2022-11-27T04:08:50.242Z,100394.84
2022-11-27T04:11:39.579Z,100406.13
2022-11-27T04:14:30.317Z,100403.72
2022-11-27T04:17:19.610Z,100402.13
2022-11-27T04:20:11.741Z,100433.38
2022-11-27T04:23:01.015Z,100409.84
2022-11-27T04:25:50.776Z,100411.59
2022-11-27T04:28:40.237Z,100405.81
2022-11-27T04:31:31.092Z,100403.25
2022-11-27T04:34:20.664Z,100401.94
2022-11-27T04:37:10.043Z,100405.53
2022-11-27T04:39:59.314Z,100417.06
2022-11-27T04:42:48.625Z,100414.66
2022-11-27T04:45:38.104Z,100414.34
2022-11-27T04:48:28.815Z,100415.94
2022-11-27T04:51:18.198Z,100418.06
2022-11-27T04:54:07.594Z,100426.41
2022-11-27T04:56:56.871Z,100424.47
2022-11-27T04:59:46.136Z,100430.75
2022-11-27T05:02:35.772Z,100420.78
2022-11-27T05:05:26.522Z,100427.22
2022-11-27T05:08:15.719Z,100421.09
2022-11-27T05:11:07.729Z,100413.06
2022-11-27T05:14:11.173Z,100410.13
2022-11-27T05:17:01.838Z,100409.34
2022-11-27T05:19:51.537Z,100415.94
2022-11-27T05:22:42.351Z,100402.09
2022-11-27T05:25:31.731Z,100410.31
2022-11-27T05:28:26.423Z,100411.94
2022-11-27T05:31:16.232Z,100409.81
2022-11-27T05:34:06.194Z,100412.72
2022-11-27T05:36:55.593Z,100420.28
2022-11-27T05:39:46.364Z,100405.19
2022-11-27T05:42:35.628Z,100401.47
2022-11-27T05:45:25.033Z,100402.25
2022-11-27T05:48:14.336Z,100407.88
2022-11-27T05:51:04.869Z,100399.03
2022-11-27T05:53:54.189Z,100400.19
2022-11-27T05:56:44.968Z,100404.50
2022-11-27T05:59:34.295Z,100391.16
2022-11-27T06:02:29.169Z,100386.16
2022-11-27T06:05:19.178Z,100386.97
2022-11-27T06:08:08.524Z,100387.75
2022-11-27T06:10:57.807Z,100392.25
2022-11-27T06:13:50.506Z,100386.31
2022-11-27T06:16:40.226Z,100376.34
2022-11-27T06:19:30.338Z,100376.34
2022-11-27T06:22:19.681Z,100383.75
2022-11-27T06:25:10.025Z,100380.03
2022-11-27T06:27:59.621Z,100371.69
2022-11-27T06:30:50.318Z,100382.97
2022-11-27T06:33:39.629Z,100386.66
2022-11-27T06:36:31.681Z,100380.22
2022-11-27T06:39:20.990Z,100389.22
2022-11-27T06:42:10.466Z,100385.03
2022-11-27T06:45:00.115Z,100390.84
2022-11-27T06:47:50.764Z,100392.25
2022-11-27T06:50:40.363Z,100390.03
2022-11-27T06:53:30.173Z,100381.81
2022-11-27T06:56:22.205Z,100382.63
2022-11-27T06:59:15.638Z,100384.72
2022-11-27T07:02:05.035Z,100389.38
2022-11-27T07:04:55.695Z,100383.09
2022-11-27T07:07:45.062Z,100381.66
2022-11-27T07:10:36.183Z,100383.75
2022-11-27T07:13:25.545Z,100381.84
2022-11-27T07:16:16.367Z,100377.16
2022-11-27T07:19:08.113Z,100385.03
2022-11-27T07:21:58.854Z,100384.56
2022-11-27T07:24:48.207Z,100378.59
2022-11-27T07:27:37.485Z,100373.28
2022-11-27T07:30:26.967Z,100376.03
2022-11-27T07:33:16.373Z,100347.88
2022-11-27T07:36:09.684Z,100366.84
2022-11-27T07:39:00.598Z,100380.03
2022-11-27T07:41:49.909Z,100374.75
2022-11-27T07:44:39.582Z,100377.78
2022-11-27T07:47:30.715Z,100382.78
2022-11-27T07:50:20.309Z,100378.75
2022-11-27T07:53:09.806Z,100377.31
2022-11-27T07:56:02.262Z,100376.03
2022-11-27T07:58:51.656Z,100386.78
2022-11-27T08:01:41.020Z,100380.50
2022-11-27T08:04:30.449Z,100380.19
2022-11-27T08:07:20.131Z,100391.13
2022-11-27T08:10:10.515Z,100383.22
2022-11-27T08:13:01.123Z,100377.94
2022-11-27T08:15:50.395Z,100376.81
2022-11-27T08:18:39.752Z,100366.16
2022-11-27T08:21:30.505Z,100369.22
2022-11-27T08:24:19.905Z,100357.16
2022-11-27T08:27:09.245Z,100348.81
2022-11-27T08:29:59.875Z,100341.25
2022-11-27T08:32:49.236Z,100347.53
2022-11-27T08:35:38.580Z,100340.75
2022-11-27T08:38:28.201Z,100348.00
2022-11-27T08:41:17.652Z,100347.03
2022-11-27T08:44:09.335Z,100349.13
2022-11-27T08:47:00.365Z,100354.59
2022-11-27T08:49:49.794Z,100359.59
2022-11-27T08:52:39.146Z,100359.25
2022-11-27T08:55:28.362Z,100356.69
2022-11-27T08:58:17.799Z,100358.63
2022-11-27T09:01:13.322Z,100352.03
2022-11-27T09:04:04.235Z,100340.13
2022-11-27T09:06:58.203Z,100345.44
2022-11-27T09:09:48.759Z,100343.34
2022-11-27T09:12:43.223Z,100349.16
2022-11-27T09:15:32.941Z,100342.22
2022-11-27T09:18:22.209Z,100338.22
2022-11-27T09:21:15.101Z,100347.72
2022-11-27T09:24:04.481Z,100342.72
2022-11-27T09:26:53.848Z,100356.41
2022-11-27T09:29:43.391Z,100352.19
2022-11-27T09:32:33.023Z,100358.47
2022-11-27T09:35:22.484Z,100356.72
2022-11-27T09:38:13.303Z,100346.38
2022-11-27T09:41:09.010Z,100348.16
2022-11-27T09:44:04.826Z,100330.63
2022-11-27T09:46:56.659Z,100334.97
2022-11-27T09:49:52.157Z,100347.84
2022-11-27T09:52:46.054Z,100347.84
2022-11-27T09:55:41.784Z,100349.63
2022-11-27T09:58:39.653Z,100345.41
2022-11-27T10:01:41.925Z,100340.72
2022-11-27T10:04:58.009Z,100334.94
2022-11-27T10:08:09.660Z,100327.97
2022-11-27T10:11:20.466Z,100349.84
2022-11-27T10:14:29.466Z,100338.88
2022-11-27T10:17:23.727Z,100348.53
2022-11-27T10:20:28.796Z,100336.56
2022-11-27T10:23:32.356Z,100340.25
2022-11-27T10:26:33.875Z,100348.31
2022-11-27T10:29:44.338Z,100348.78
2022-11-27T10:35:49.420Z,100342.75
2022-11-27T10:38:42.358Z,100323.13
2022-11-27T10:41:49.304Z,100327.72
2022-11-27T10:44:44.094Z,100324.75
2022-11-27T10:47:34.165Z,100321.09
2022-11-27T10:50:23.520Z,100338.88
2022-11-27T10:53:27.270Z,100323.16
2022-11-27T10:56:51.164Z,100314.03
2022-11-27T10:59:48.019Z,100312.69
2022-11-27T11:02:39.983Z,100317.16
2022-11-27T11:05:45.034Z,100314.41
2022-11-27T11:08:39.760Z,100303.94
2022-11-27T11:11:29.647Z,100312.13
2022-11-27T11:14:23.932Z,100305.03
2022-11-27T11:17:18.620Z,100290.53
2022-11-27T11:20:21.354Z,100300.03
2022-11-27T11:23:30.836Z,100302.59
2022-11-27T11:26:29.797Z,100303.41
2022-11-27T11:29:32.633Z,100295.97
2022-11-27T11:32:26.887Z,100290.84
2022-11-27T11:35:28.814Z,100283.28
2022-11-27T11:38:23.859Z,100271.38
2022-11-27T11:41:13.843Z,100274.69
2022-11-27T11:44:03.904Z,100273.47
2022-11-27T11:46:56.172Z,100267.25
2022-11-27T11:49:45.601Z,100261.31
2022-11-27T11:52:54.199Z,100267.09
2022-11-27T11:55:57.003Z,100255.22
2022-11-27T11:58:57.788Z,100245.94
2022-11-27T12:02:26.556Z,100234.38
2022-11-27T12:05:36.197Z,100217.66
2022-11-27T12:08:43.279Z,100224.53
2022-11-27T12:11:41.813Z,100216.63
2022-11-27T12:14:45.741Z,100230.34
2022-11-27T12:17:53.631Z,100208.69
2022-11-27T12:21:00.100Z,100203.19
2022-11-27T12:24:04.067Z,100209.81
2022-11-27T12:27:12.135Z,100199.56
2022-11-27T12:30:16.859Z,100187.63
2022-11-27T12:33:27.108Z,100160.75
2022-11-27T12:36:28.180Z,100161.63
2022-11-27T12:39:25.987Z,100152.84
2022-11-27T12:42:26.003Z,100142.63
2022-11-27T12:45:22.363Z,100143.06
2022-11-27T12:48:21.803Z,100137.75
2022-11-27T12:51:17.911Z,100140.03
2022-11-27T12:54:15.500Z,100136.44
2022-11-27T12:57:11.405Z,100117.19
2022-11-27T13:00:07.493Z,100118.28
2022-11-27T13:03:06.559Z,100112.28
2022-11-27T13:06:02.167Z,100107.78
2022-11-27T13:08:58.469Z,100101.00
2022-11-27T13:11:48.965Z,100101.13
2022-11-27T13:14:42.204Z,100089.81
2022-11-27T13:17:40.722Z,100080.72
2022-11-27T13:20:38.364Z,100084.09
2022-11-27T13:23:32.514Z,100068.75
2022-11-27T13:26:27.491Z,100070.19
2022-11-27T13:29:26.609Z,100074.81
2022-11-27T13:32:23.885Z,100064.81
2022-11-27T13:35:24.463Z,100068.22
2022-11-27T13:38:21.505Z,100062.72
2022-11-27T13:41:22.632Z,100066.41
2022-11-27T13:44:26.514Z,100055.75
2022-11-27T13:47:20.387Z,100058.06
2022-11-27T13:50:13.934Z,100050.41
2022-11-27T13:53:07.497Z,100043.53
2022-11-27T13:55:59.304Z,100048.56
2022-11-27T13:58:50.063Z,100027.78
2022-11-27T14:01:39.841Z,100037.59
2022-11-27T14:04:31.259Z,100035.06
2022-11-27T14:07:21.492Z,100035.31
2022-11-27T14:10:15.883Z,100037.28
2022-11-27T14:13:08.435Z,100044.47
2022-11-27T14:16:02.760Z,100046.75
2022-11-27T14:18:55.192Z,100038.16
2022-11-27T14:21:44.617Z,100030.72
2022-11-27T14:24:44.191Z,100034.63
2022-11-27T14:27:37.349Z,100028.09
2022-11-27T14:30:36.050Z,100012.19
2022-11-27T14:33:29.721Z,100014.91
2022-11-27T14:36:25.873Z,100014.47
2022-11-27T14:39:24.910Z,100014.00
2022-11-27T14:42:28.139Z,100008.41
2022-11-27T14:45:21.484Z,100007.59
2022-11-27T14:48:26.483Z,99990.94
2022-11-27T14:51:20.148Z,99998.91
2022-11-27T14:54:14.791Z,99981.91
2022-11-27T14:57:05.229Z,99996.53
2022-11-27T15:00:16.542Z,99989.44
2022-11-27T15:03:11.235Z,99979.50
2022-11-27T15:06:05.082Z,99947.84
2022-11-27T15:09:23.743Z,99977.44
2022-11-27T15:12:16.374Z,99967.72
2022-11-27T15:15:11.059Z,99974.81
2022-11-27T15:18:03.383Z,99965.19
2022-11-27T15:20:53.306Z,99958.13
2022-11-27T15:23:49.758Z,99956.88
2022-11-27T15:26:41.098Z,99950.34
2022-11-27T15:29:37.963Z,99951.13
2022-11-27T15:32:29.986Z,99943.94
2022-11-27T15:35:27.465Z,99933.66
2022-11-27T15:38:20.157Z,99944.72
2022-11-27T15:41:23.000Z,99943.13
2022-11-27T15:44:12.389Z,99938.28
2022-11-27T15:47:04.365Z,99932.03
2022-11-27T15:49:53.765Z,99933.91
2022-11-27T15:52:43.738Z,99933.56
2022-11-27T15:55:33.500Z,99933.00
2022-11-27T15:58:24.150Z,99945.75
2022-11-27T16:01:13.804Z,99944.41
2022-11-27T16:04:03.308Z,99931.25
2022-11-27T16:06:53.807Z,99946.44
2022-11-27T16:09:43.193Z,99943.56
2022-11-27T16:12:34.448Z,99936.38
2022-11-27T16:15:28.837Z,99930.91
2022-11-27T16:18:22.103Z,99925.97
2022-11-27T16:21:14.198Z,99919.16
2022-11-27T16:24:07.664Z,99920.22
2022-11-27T16:26:57.225Z,99913.69
2022-11-27T16:29:46.578Z,99917.63
2022-11-27T16:32:40.786Z,99916.25
2022-11-27T16:35:30.925Z,99918.09
2022-11-27T16:38:21.055Z,99925.50
2022-11-27T16:41:14.484Z,99925.84
2022-11-27T16:44:12.153Z,99928.59
2022-11-27T16:47:01.747Z,99925.09
2022-11-27T16:49:53.370Z,99909.63
2022-11-27T16:52:43.129Z,99903.78
2022-11-27T16:55:33.311Z,99906.28
2022-11-27T16:58:22.617Z,99911.91
2022-11-27T17:01:14.371Z,99906.81
2022-11-27T17:04:04.812Z,99915.28
2022-11-27T17:06:55.605Z,99910.16
2022-11-27T17:09:44.889Z,99899.09
2022-11-27T17:12:34.772Z,99869.16
2022-11-27T17:15:24.966Z,99896.69
2022-11-27T17:18:14.672Z,99887.34
2022-11-27T17:21:07.191Z,99873.41
2022-11-27T17:23:59.396Z,99871.22
2022-11-27T17:26:49.693Z,99881.28
2022-11-27T17:29:39.399Z,99880.72
2022-11-27T17:32:29.114Z,99871.13
2022-11-27T17:35:18.410Z,99878.53
2022-11-27T17:38:08.086Z,99868.56
2022-11-27T17:41:02.869Z,99870.97
2022-11-27T17:43:52.387Z,99866.63
2022-11-27T17:46:41.707Z,99867.63
2022-11-27T17:49:31.455Z,99859.44
2022-11-27T17:52:20.711Z,99869.44
2022-11-27T17:55:10.644Z,99860.91
2022-11-27T17:58:02.276Z,99849.03
2022-11-27T18:00:51.752Z,99842.88
2022-11-27T18:03:42.542Z,99848.09
2022-11-27T18:06:32.913Z,99834.88
2022-11-27T18:09:22.254Z,99839.03
2022-11-27T18:12:11.563Z,99839.41
2022-11-27T18:15:03.766Z,99829.16
2022-11-27T18:17:53.120Z,99840.47
2022-11-27T18:20:42.481Z,99842.63
2022-11-27T18:23:31.820Z,99834.66
2022-11-27T18:26:39.243Z,99819.19
2022-11-27T18:29:32.154Z,99815.38
2022-11-27T18:32:23.084Z,99825.53
2022-11-27T18:35:12.628Z,99798.28
2022-11-27T18:38:01.928Z,99812.22
2022-11-27T18:40:51.199Z,99800.31
2022-11-27T18:43:41.396Z,99798.44
2022-11-27T18:46:30.856Z,99796.03
2022-11-27T18:49:23.386Z,99811.59
2022-11-27T18:52:13.675Z,99814.34
2022-11-27T18:55:04.006Z,99838.06
2022-11-27T18:57:54.181Z,99885.94
2022-11-27T19:00:44.780Z,99865.94
2022-11-27T19:03:38.850Z,99856.22
2022-11-27T19:06:32.854Z,99835.59
2022-11-27T19:09:22.686Z,99821.00
2022-11-27T19:12:12.286Z,99807.19
2022-11-27T19:15:01.917Z,99783.25
2022-11-27T19:17:51.267Z,99778.16
2022-11-27T19:20:40.998Z,99765.97
2022-11-27T19:23:37.861Z,99758.28
2022-11-27T19:26:31.478Z,99762.63
2022-11-27T19:29:20.872Z,99765.22
2022-11-27T19:32:10.409Z,99759.13
2022-11-27T19:35:04.385Z,99754.66
2022-11-27T19:37:56.551Z,99752.78
2022-11-27T19:40:47.255Z,99766.53
2022-11-27T19:43:36.665Z,99756.13
2022-11-27T19:46:28.614Z,99766.25
2022-11-27T19:49:19.264Z,99767.22
2022-11-27T19:52:08.561Z,99766.22
2022-11-27T19:54:57.938Z,99769.13
2022-11-27T19:57:48.713Z,99781.63
2022-11-27T20:00:38.581Z,99774.38
2022-11-27T20:03:28.063Z,99781.59
2022-11-27T20:06:20.633Z,99786.25
2022-11-27T20:09:10.408Z,99773.88
2022-11-27T20:12:02.537Z,99776.13
2022-11-27T20:14:53.333Z,99760.22
2022-11-27T20:17:42.877Z,99759.44
2022-11-27T20:20:34.233Z,99762.81
2022-11-27T20:23:23.821Z,99750.31
2022-11-27T20:26:16.713Z,99727.84
2022-11-27T20:29:07.233Z,99726.25
2022-11-27T20:31:57.977Z,99727.09
2022-11-27T20:34:47.462Z,99737.00
2022-11-27T20:37:38.012Z,99742.00
2022-11-27T20:40:28.388Z,99743.59
2022-11-27T20:43:18.527Z,99735.41
2022-11-27T20:46:08.888Z,99732.22
2022-11-27T20:49:01.123Z,99732.88
2022-11-27T20:51:51.286Z,99726.63
2022-11-27T20:54:44.669Z,99734.16
2022-11-27T20:57:34.207Z,99723.88
2022-11-27T21:00:24.307Z,99717.44
2022-11-27T21:03:13.584Z,99713.72
2022-11-27T21:06:04.455Z,99713.84
2022-11-27T21:08:55.702Z,99708.88
2022-11-27T21:11:47.491Z,99704.50
2022-11-27T21:14:37.054Z,99711.69
2022-11-27T21:17:26.469Z,99719.09
2022-11-27T21:20:16.182Z,99722.13
2022-11-27T21:23:06.847Z,99732.19
2022-11-27T21:25:56.175Z,99732.34
2022-11-27T21:28:46.747Z,99714.84
2022-11-27T21:31:37.990Z,99713.41
2022-11-27T21:34:28.339Z,99700.81
2022-11-27T21:37:18.137Z,99707.69
2022-11-27T21:40:10.674Z,99693.44
2022-11-27T21:43:00.218Z,99702.38
2022-11-27T21:45:49.716Z,99697.38
2022-11-27T21:48:39.292Z,99698.66
2022-11-27T21:51:29.419Z,99695.59
2022-11-27T21:54:19.954Z,99702.19
2022-11-27T21:57:10.716Z,99697.25
2022-11-27T22:00:01.212Z,99692.50
2022-11-27T22:02:50.526Z,99686.50
2022-11-27T22:05:39.815Z,99686.44
2022-11-27T22:08:29.670Z,99671.78
2022-11-27T22:11:23.402Z,99671.66
2022-11-27T22:14:17.254Z,99666.19
2022-11-27T22:17:06.560Z,99665.72
2022-11-27T22:19:56.020Z,99669.88
2022-11-27T22:22:46.302Z,99660.00
2022-11-27T22:25:35.867Z,99651.09
2022-11-27T22:28:25.327Z,99671.28
2022-11-27T22:31:19.373Z,99666.28
2022-11-27T22:34:08.728Z,99676.75
2022-11-27T22:36:58.110Z,99672.19
2022-11-27T22:39:47.491Z,99690.25
2022-11-27T22:42:37.464Z,99687.91
2022-11-27T22:45:26.897Z,99681.97
2022-11-27T22:48:18.093Z,99687.66
2022-11-27T22:51:07.955Z,99689.19
2022-11-27T22:53:57.410Z,99692.09
2022-11-27T22:56:47.523Z,99693.19
2022-11-27T22:59:37.574Z,99686.31
2022-11-27T23:02:27.453Z,99693.44
2022-11-27T23:05:18.928Z,99698.13
2022-11-27T23:08:08.581Z,99693.78
2022-11-27T23:10:58.178Z,99698.44
2022-11-27T23:13:49.804Z,99690.09
2022-11-27T23:16:39.623Z,99697.84
2022-11-27T23:19:29.172Z,99693.97
2022-11-27T23:22:19.819Z,99688.72
2022-11-27T23:25:10.538Z,99696.66
2022-11-27T23:27:59.980Z,99673.72
2022-11-27T23:31:03.147Z,99681.19
2022-11-27T23:33:59.118Z,99678.53
2022-11-27T23:36:48.402Z,99681.06
2022-11-27T23:39:39.754Z,99673.50
2022-11-27T23:42:29.099Z,99667.59
2022-11-27T23:45:18.724Z,99668.53
2022-11-27T23:48:08.127Z,99662.94
2022-11-27T23:50:57.443Z,99671.66
2022-11-27T23:53:47.292Z,99667.47
2022-11-27T23:56:39.963Z,99669.72
2022-11-27T23:59:29.536Z,99673.06
